sensor_id;sensor_type;location;lat;lon;timestamp;temperature;humidity
19340;HTU21D;9804;52.350;6.684;2024-01-11T00:00:15;-2.22;-6.00
19340;HTU21D;9804;52.350;6.684;2024-01-11T00:02:40;-2.26;-6.00
19340;HTU21D;9804;52.350;6.684;2024-01-11T00:05:06;-2.18;-6.00
19340;HTU21D;9804;52.350;6.684;2024-01-11T00:07:32;-2.18;-6.00
19340;HTU21D;9804;52.350;6.684;2024-01-11T00:09:57;-2.26;-6.00
19340;HTU21D;9804;52.350;6.684;2024-01-11T00:12:23;-2.26;-6.00
19340;HTU21D;9804;52.350;6.684;2024-01-11T00:14:48;-2.12;-6.00
19340;HTU21D;9804;52.350;6.684;2024-01-11T00:17:14;-2.14;-6.00
19340;HTU21D;9804;52.350;6.684;2024-01-11T00:19:41;-2.14;-6.00
19340;HTU21D;9804;52.350;6.684;2024-01-11T00:22:06;-2.28;-6.00
19340;HTU21D;9804;52.350;6.684;2024-01-11T00:24:31;-2.35;-6.00
19340;HTU21D;9804;52.350;6.684;2024-01-11T00:26:57;-2.48;-6.00
19340;HTU21D;9804;52.350;6.684;2024-01-11T00:29:22;-2.52;-6.00
19340;HTU21D;9804;52.350;6.684;2024-01-11T00:31:48;-2.54;-6.00
19340;HTU21D;9804;52.350;6.684;2024-01-11T00:34:13;-2.60;-6.00
19340;HTU21D;9804;52.350;6.684;2024-01-11T00:36:38;-2.66;-6.00
19340;HTU21D;9804;52.350;6.684;2024-01-11T00:39:04;-2.51;-6.00
19340;HTU21D;9804;52.350;6.684;2024-01-11T00:41:29;-2.37;-6.00
19340;HTU21D;9804;52.350;6.684;2024-01-11T00:43:55;-2.44;-6.00
19340;HTU21D;9804;52.350;6.684;2024-01-11T00:46:20;-2.59;-6.00
19340;HTU21D;9804;52.350;6.684;2024-01-11T00:48:45;-2.60;-6.00
19340;HTU21D;9804;52.350;6.684;2024-01-11T00:51:11;-2.66;-6.00
19340;HTU21D;9804;52.350;6.684;2024-01-11T00:53:36;-2.68;-6.00
19340;HTU21D;9804;52.350;6.684;2024-01-11T00:56:02;-2.71;-6.00
19340;HTU21D;9804;52.350;6.684;2024-01-11T00:58:28;-2.63;-6.00
19340;HTU21D;9804;52.350;6.684;2024-01-11T01:00:53;-2.77;-6.00
19340;HTU21D;9804;52.350;6.684;2024-01-11T01:03:20;-2.84;-6.00
19340;HTU21D;9804;52.350;6.684;2024-01-11T01:05:46;-2.91;-6.00
19340;HTU21D;9804;52.350;6.684;2024-01-11T01:08:12;-2.93;-6.00
19340;HTU21D;9804;52.350;6.684;2024-01-11T01:10:37;-3.08;-6.00
19340;HTU21D;9804;52.350;6.684;2024-01-11T01:13:03;-3.13;-6.00
19340;HTU21D;9804;52.350;6.684;2024-01-11T01:15:28;-3.20;-6.00
19340;HTU21D;9804;52.350;6.684;2024-01-11T01:17:54;-3.08;-6.00
19340;HTU21D;9804;52.350;6.684;2024-01-11T01:20:19;-3.07;-6.00
19340;HTU21D;9804;52.350;6.684;2024-01-11T01:22:45;-3.06;-6.00
19340;HTU21D;9804;52.350;6.684;2024-01-11T01:25:10;-3.08;-6.00
19340;HTU21D;9804;52.350;6.684;2024-01-11T01:27:36;-3.16;-6.00
19340;HTU21D;9804;52.350;6.684;2024-01-11T01:30:01;-3.32;-6.00
19340;HTU21D;9804;52.350;6.684;2024-01-11T01:32:27;-3.35;-6.00
19340;HTU21D;9804;52.350;6.684;2024-01-11T01:34:52;-3.43;-6.00
19340;HTU21D;9804;52.350;6.684;2024-01-11T01:37:18;-3.43;-6.00
19340;HTU21D;9804;52.350;6.684;2024-01-11T01:39:43;-3.42;-6.00
19340;HTU21D;9804;52.350;6.684;2024-01-11T01:42:08;-3.43;-6.00
19340;HTU21D;9804;52.350;6.684;2024-01-11T01:44:34;-3.41;-6.00
19340;HTU21D;9804;52.350;6.684;2024-01-11T01:47:00;-3.45;-6.00
19340;HTU21D;9804;52.350;6.684;2024-01-11T01:49:26;-3.46;-6.00
19340;HTU21D;9804;52.350;6.684;2024-01-11T01:51:53;-3.46;-6.00
19340;HTU21D;9804;52.350;6.684;2024-01-11T01:54:19;-3.47;-6.00
19340;HTU21D;9804;52.350;6.684;2024-01-11T01:56:46;-3.51;-6.00
19340;HTU21D;9804;52.350;6.684;2024-01-11T01:59:11;-3.53;-6.00
19340;HTU21D;9804;52.350;6.684;2024-01-11T02:01:38;-3.49;-6.00
19340;HTU21D;9804;52.350;6.684;2024-01-11T02:04:04;-3.52;-6.00
19340;HTU21D;9804;52.350;6.684;2024-01-11T02:06:33;-3.54;-6.00
19340;HTU21D;9804;52.350;6.684;2024-01-11T02:09:00;-3.60;-6.00
19340;HTU21D;9804;52.350;6.684;2024-01-11T02:11:27;-3.66;-6.00
19340;HTU21D;9804;52.350;6.684;2024-01-11T02:13:53;-3.72;-6.00
19340;HTU21D;9804;52.350;6.684;2024-01-11T02:16:19;-3.74;-6.00
19340;HTU21D;9804;52.350;6.684;2024-01-11T02:18:44;-3.80;-6.00
19340;HTU21D;9804;52.350;6.684;2024-01-11T02:21:11;-3.66;-6.00
19340;HTU21D;9804;52.350;6.684;2024-01-11T02:23:43;-3.64;-6.00
19340;HTU21D;9804;52.350;6.684;2024-01-11T02:26:12;-3.67;-6.00
19340;HTU21D;9804;52.350;6.684;2024-01-11T02:28:37;-3.70;-6.00
19340;HTU21D;9804;52.350;6.684;2024-01-11T02:31:02;-3.71;-6.00
19340;HTU21D;9804;52.350;6.684;2024-01-11T02:33:28;-3.72;-6.00
19340;HTU21D;9804;52.350;6.684;2024-01-11T02:35:54;-3.82;-6.00
19340;HTU21D;9804;52.350;6.684;2024-01-11T02:38:19;-3.79;-6.00
19340;HTU21D;9804;52.350;6.684;2024-01-11T02:40:45;-3.80;-6.00
19340;HTU21D;9804;52.350;6.684;2024-01-11T02:43:11;-3.81;-6.00
19340;HTU21D;9804;52.350;6.684;2024-01-11T02:45:37;-3.76;-6.00
19340;HTU21D;9804;52.350;6.684;2024-01-11T02:48:03;-3.85;-6.00
19340;HTU21D;9804;52.350;6.684;2024-01-11T02:50:29;-3.78;-6.00
19340;HTU21D;9804;52.350;6.684;2024-01-11T02:52:54;-3.80;-6.00
19340;HTU21D;9804;52.350;6.684;2024-01-11T02:55:19;-3.81;-6.00
19340;HTU21D;9804;52.350;6.684;2024-01-11T02:57:45;-3.91;-6.00
19340;HTU21D;9804;52.350;6.684;2024-01-11T03:00:11;-3.85;-6.00
19340;HTU21D;9804;52.350;6.684;2024-01-11T03:02:37;-3.85;-6.00
19340;HTU21D;9804;52.350;6.684;2024-01-11T03:05:03;-3.87;-6.00
19340;HTU21D;9804;52.350;6.684;2024-01-11T03:07:29;-3.85;-6.00
19340;HTU21D;9804;52.350;6.684;2024-01-11T03:09:55;-3.85;-6.00
19340;HTU21D;9804;52.350;6.684;2024-01-11T03:12:21;-3.79;-6.00
19340;HTU21D;9804;52.350;6.684;2024-01-11T03:14:47;-3.80;-6.00
19340;HTU21D;9804;52.350;6.684;2024-01-11T03:17:12;-3.68;-6.00
19340;HTU21D;9804;52.350;6.684;2024-01-11T03:19:41;-3.62;-6.00
19340;HTU21D;9804;52.350;6.684;2024-01-11T03:22:07;-3.61;-6.00
19340;HTU21D;9804;52.350;6.684;2024-01-11T03:24:32;-3.65;-6.00
19340;HTU21D;9804;52.350;6.684;2024-01-11T03:26:58;-3.58;-6.00
19340;HTU21D;9804;52.350;6.684;2024-01-11T03:29:23;-3.58;-6.00
19340;HTU21D;9804;52.350;6.684;2024-01-11T03:31:49;-3.54;-6.00
19340;HTU21D;9804;52.350;6.684;2024-01-11T03:34:14;-3.38;-6.00
19340;HTU21D;9804;52.350;6.684;2024-01-11T03:36:40;-3.52;-6.00
19340;HTU21D;9804;52.350;6.684;2024-01-11T03:39:05;-3.61;-6.00
19340;HTU21D;9804;52.350;6.684;2024-01-11T03:41:31;-3.63;-6.00
19340;HTU21D;9804;52.350;6.684;2024-01-11T03:43:57;-3.64;-6.00
19340;HTU21D;9804;52.350;6.684;2024-01-11T03:46:22;-3.71;-6.00
19340;HTU21D;9804;52.350;6.684;2024-01-11T03:48:48;-3.76;-6.00
19340;HTU21D;9804;52.350;6.684;2024-01-11T03:51:13;-3.81;-6.00
19340;HTU21D;9804;52.350;6.684;2024-01-11T03:53:39;-3.81;-6.00
19340;HTU21D;9804;52.350;6.684;2024-01-11T03:56:04;-3.78;-6.00
19340;HTU21D;9804;52.350;6.684;2024-01-11T03:58:30;-3.67;-6.00
19340;HTU21D;9804;52.350;6.684;2024-01-11T04:00:55;-3.79;-6.00
19340;HTU21D;9804;52.350;6.684;2024-01-11T04:03:21;-3.70;-6.00
19340;HTU21D;9804;52.350;6.684;2024-01-11T04:05:46;-3.64;-6.00
19340;HTU21D;9804;52.350;6.684;2024-01-11T04:08:12;-3.48;-6.00
19340;HTU21D;9804;52.350;6.684;2024-01-11T04:10:38;-3.34;-6.00
19340;HTU21D;9804;52.350;6.684;2024-01-11T04:13:03;-3.41;-6.00
19340;HTU21D;9804;52.350;6.684;2024-01-11T04:15:29;-3.38;-6.00
19340;HTU21D;9804;52.350;6.684;2024-01-11T04:17:54;-3.32;-6.00
19340;HTU21D;9804;52.350;6.684;2024-01-11T04:20:19;-3.23;-6.00
19340;HTU21D;9804;52.350;6.684;2024-01-11T04:22:45;-3.18;-6.00
19340;HTU21D;9804;52.350;6.684;2024-01-11T04:25:10;-3.34;-6.00
19340;HTU21D;9804;52.350;6.684;2024-01-11T04:27:36;-3.43;-6.00
19340;HTU21D;9804;52.350;6.684;2024-01-11T04:30:02;-3.39;-6.00
19340;HTU21D;9804;52.350;6.684;2024-01-11T04:32:27;-3.45;-6.00
19340;HTU21D;9804;52.350;6.684;2024-01-11T04:34:53;-3.54;-6.00
19340;HTU21D;9804;52.350;6.684;2024-01-11T04:37:18;-3.60;-6.00
19340;HTU21D;9804;52.350;6.684;2024-01-11T04:39:44;-3.55;-6.00
19340;HTU21D;9804;52.350;6.684;2024-01-11T04:42:09;-3.60;-6.00
19340;HTU21D;9804;52.350;6.684;2024-01-11T04:44:35;-3.76;-6.00
19340;HTU21D;9804;52.350;6.684;2024-01-11T04:47:00;-3.80;-6.00
19340;HTU21D;9804;52.350;6.684;2024-01-11T04:49:26;-3.93;-6.00
19340;HTU21D;9804;52.350;6.684;2024-01-11T04:51:51;-3.91;-6.00
19340;HTU21D;9804;52.350;6.684;2024-01-11T04:54:17;-3.96;-6.00
19340;HTU21D;9804;52.350;6.684;2024-01-11T04:56:42;-3.94;-6.00
19340;HTU21D;9804;52.350;6.684;2024-01-11T04:59:07;-3.93;-6.00
19340;HTU21D;9804;52.350;6.684;2024-01-11T05:01:33;-3.95;-6.00
19340;HTU21D;9804;52.350;6.684;2024-01-11T05:03:58;-4.06;-6.00
19340;HTU21D;9804;52.350;6.684;2024-01-11T05:06:24;-4.04;-6.00
19340;HTU21D;9804;52.350;6.684;2024-01-11T05:08:51;-3.97;-6.00
19340;HTU21D;9804;52.350;6.684;2024-01-11T05:11:23;-3.96;-6.00
19340;HTU21D;9804;52.350;6.684;2024-01-11T05:13:52;-3.99;-6.00
19340;HTU21D;9804;52.350;6.684;2024-01-11T05:16:25;-4.07;-6.00
19340;HTU21D;9804;52.350;6.684;2024-01-11T05:18:51;-4.10;-6.00
19340;HTU21D;9804;52.350;6.684;2024-01-11T05:21:17;-4.28;-6.00
19340;HTU21D;9804;52.350;6.684;2024-01-11T05:23:43;-4.19;-6.00
19340;HTU21D;9804;52.350;6.684;2024-01-11T05:26:09;-4.11;-6.00
19340;HTU21D;9804;52.350;6.684;2024-01-11T05:28:35;-4.07;-6.00
19340;HTU21D;9804;52.350;6.684;2024-01-11T05:31:01;-4.00;-6.00
19340;HTU21D;9804;52.350;6.684;2024-01-11T05:33:26;-4.00;-6.00
19340;HTU21D;9804;52.350;6.684;2024-01-11T05:35:51;-3.98;-6.00
19340;HTU21D;9804;52.350;6.684;2024-01-11T05:38:19;-3.94;-6.00
19340;HTU21D;9804;52.350;6.684;2024-01-11T05:40:45;-4.01;-6.00
19340;HTU21D;9804;52.350;6.684;2024-01-11T05:43:10;-3.95;-6.00
19340;HTU21D;9804;52.350;6.684;2024-01-11T05:45:36;-3.94;-6.00
19340;HTU21D;9804;52.350;6.684;2024-01-11T05:48:01;-3.99;-6.00
19340;HTU21D;9804;52.350;6.684;2024-01-11T05:50:27;-3.98;-6.00
19340;HTU21D;9804;52.350;6.684;2024-01-11T05:52:52;-3.91;-6.00
19340;HTU21D;9804;52.350;6.684;2024-01-11T05:55:20;-3.85;-6.00
19340;HTU21D;9804;52.350;6.684;2024-01-11T05:57:45;-3.80;-6.00
19340;HTU21D;9804;52.350;6.684;2024-01-11T06:00:11;-3.69;-6.00
19340;HTU21D;9804;52.350;6.684;2024-01-11T06:02:36;-3.64;-6.00
19340;HTU21D;9804;52.350;6.684;2024-01-11T06:05:03;-3.55;-6.00
19340;HTU21D;9804;52.350;6.684;2024-01-11T06:07:29;-3.55;-6.00
19340;HTU21D;9804;52.350;6.684;2024-01-11T06:09:54;-3.47;-6.00
19340;HTU21D;9804;52.350;6.684;2024-01-11T06:12:20;-3.45;-6.00
19340;HTU21D;9804;52.350;6.684;2024-01-11T06:14:46;-3.40;-6.00
19340;HTU21D;9804;52.350;6.684;2024-01-11T06:17:11;-3.39;-6.00
19340;HTU21D;9804;52.350;6.684;2024-01-11T06:19:37;-3.24;-6.00
19340;HTU21D;9804;52.350;6.684;2024-01-11T06:22:04;-3.22;-6.00
19340;HTU21D;9804;52.350;6.684;2024-01-11T06:24:30;-3.38;-6.00
19340;HTU21D;9804;52.350;6.684;2024-01-11T06:26:55;-3.19;-6.00
19340;HTU21D;9804;52.350;6.684;2024-01-11T06:29:21;-3.31;-6.00
19340;HTU21D;9804;52.350;6.684;2024-01-11T06:31:46;-3.33;-6.00
19340;HTU21D;9804;52.350;6.684;2024-01-11T06:34:12;-3.40;-6.00
19340;HTU21D;9804;52.350;6.684;2024-01-11T06:36:37;-3.38;-6.00
19340;HTU21D;9804;52.350;6.684;2024-01-11T06:39:02;-3.48;-6.00
19340;HTU21D;9804;52.350;6.684;2024-01-11T06:41:29;-3.53;-6.00
19340;HTU21D;9804;52.350;6.684;2024-01-11T06:43:54;-3.61;-6.00
19340;HTU21D;9804;52.350;6.684;2024-01-11T06:46:21;-3.70;-6.00
19340;HTU21D;9804;52.350;6.684;2024-01-11T06:48:47;-3.70;-6.00
19340;HTU21D;9804;52.350;6.684;2024-01-11T06:51:16;-3.62;-6.00
19340;HTU21D;9804;52.350;6.684;2024-01-11T06:53:42;-3.67;-6.00
19340;HTU21D;9804;52.350;6.684;2024-01-11T06:56:20;-3.72;-6.00
19340;HTU21D;9804;52.350;6.684;2024-01-11T06:58:46;-3.74;-6.00
19340;HTU21D;9804;52.350;6.684;2024-01-11T07:01:12;-3.71;-6.00
19340;HTU21D;9804;52.350;6.684;2024-01-11T07:03:38;-3.65;-6.00
19340;HTU21D;9804;52.350;6.684;2024-01-11T07:06:04;-3.64;-6.00
19340;HTU21D;9804;52.350;6.684;2024-01-11T07:08:30;-3.66;-6.00
19340;HTU21D;9804;52.350;6.684;2024-01-11T07:10:56;-3.74;-6.00
19340;HTU21D;9804;52.350;6.684;2024-01-11T07:13:22;-3.79;-6.00
19340;HTU21D;9804;52.350;6.684;2024-01-11T07:15:47;-3.77;-6.00
19340;HTU21D;9804;52.350;6.684;2024-01-11T07:18:13;-3.80;-6.00
19340;HTU21D;9804;52.350;6.684;2024-01-11T07:20:39;-3.82;-6.00
19340;HTU21D;9804;52.350;6.684;2024-01-11T07:23:05;-3.68;-6.00
19340;HTU21D;9804;52.350;6.684;2024-01-11T07:25:30;-3.52;-6.00
19340;HTU21D;9804;52.350;6.684;2024-01-11T07:27:56;-3.53;-6.00
19340;HTU21D;9804;52.350;6.684;2024-01-11T07:30:21;-3.51;-6.00
19340;HTU21D;9804;52.350;6.684;2024-01-11T07:32:46;-3.53;-6.00
19340;HTU21D;9804;52.350;6.684;2024-01-11T07:35:13;-3.55;-6.00
19340;HTU21D;9804;52.350;6.684;2024-01-11T07:37:39;-3.43;-6.00
19340;HTU21D;9804;52.350;6.684;2024-01-11T07:40:05;-3.35;-6.00
19340;HTU21D;9804;52.350;6.684;2024-01-11T07:42:37;-3.37;-6.00
19340;HTU21D;9804;52.350;6.684;2024-01-11T07:45:04;-3.42;-6.00
19340;HTU21D;9804;52.350;6.684;2024-01-11T07:47:30;-3.35;-6.00
19340;HTU21D;9804;52.350;6.684;2024-01-11T07:49:55;-3.31;-6.00
19340;HTU21D;9804;52.350;6.684;2024-01-11T07:52:21;-3.23;-6.00
19340;HTU21D;9804;52.350;6.684;2024-01-11T07:54:46;-3.30;-6.00
19340;HTU21D;9804;52.350;6.684;2024-01-11T07:57:12;-3.32;-6.00
19340;HTU21D;9804;52.350;6.684;2024-01-11T07:59:37;-3.28;-6.00
19340;HTU21D;9804;52.350;6.684;2024-01-11T08:02:03;-3.24;-6.00
19340;HTU21D;9804;52.350;6.684;2024-01-11T08:04:29;-3.17;-6.00
19340;HTU21D;9804;52.350;6.684;2024-01-11T08:06:54;-3.04;-6.00
19340;HTU21D;9804;52.350;6.684;2024-01-11T08:09:20;-3.01;-6.00
19340;HTU21D;9804;52.350;6.684;2024-01-11T08:11:45;-2.89;-6.00
19340;HTU21D;9804;52.350;6.684;2024-01-11T08:14:11;-2.91;-6.00
19340;HTU21D;9804;52.350;6.684;2024-01-11T08:16:37;-3.01;-6.00
19340;HTU21D;9804;52.350;6.684;2024-01-11T08:19:03;-3.02;-6.00
19340;HTU21D;9804;52.350;6.684;2024-01-11T08:21:28;-2.86;-6.00
19340;HTU21D;9804;52.350;6.684;2024-01-11T08:23:54;-2.74;-6.00
19340;HTU21D;9804;52.350;6.684;2024-01-11T08:26:20;-2.60;-6.00
19340;HTU21D;9804;52.350;6.684;2024-01-11T08:28:47;-2.28;-6.00
19340;HTU21D;9804;52.350;6.684;2024-01-11T08:31:13;-2.31;-6.00
19340;HTU21D;9804;52.350;6.684;2024-01-11T08:33:38;-2.16;-6.00
19340;HTU21D;9804;52.350;6.684;2024-01-11T08:36:05;-1.91;-6.00
19340;HTU21D;9804;52.350;6.684;2024-01-11T08:38:30;-1.90;-6.00
19340;HTU21D;9804;52.350;6.684;2024-01-11T08:40:56;-1.79;-6.00
19340;HTU21D;9804;52.350;6.684;2024-01-11T08:43:21;-1.73;-6.00
19340;HTU21D;9804;52.350;6.684;2024-01-11T08:45:47;-1.60;-6.00
19340;HTU21D;9804;52.350;6.684;2024-01-11T08:48:13;-1.47;-6.00
19340;HTU21D;9804;52.350;6.684;2024-01-11T08:50:38;-1.36;-6.00
19340;HTU21D;9804;52.350;6.684;2024-01-11T08:53:04;-1.39;-6.00
19340;HTU21D;9804;52.350;6.684;2024-01-11T08:55:29;-1.20;-6.00
19340;HTU21D;9804;52.350;6.684;2024-01-11T08:57:54;-1.20;-6.00
19340;HTU21D;9804;52.350;6.684;2024-01-11T09:00:20;-1.16;-6.00
19340;HTU21D;9804;52.350;6.684;2024-01-11T09:02:46;-1.12;-6.00
19340;HTU21D;9804;52.350;6.684;2024-01-11T09:05:13;-0.93;-6.00
19340;HTU21D;9804;52.350;6.684;2024-01-11T09:07:38;-0.89;-6.00
19340;HTU21D;9804;52.350;6.684;2024-01-11T09:10:04;-0.68;-6.00
19340;HTU21D;9804;52.350;6.684;2024-01-11T09:12:30;-0.75;-6.00
19340;HTU21D;9804;52.350;6.684;2024-01-11T09:14:55;-0.81;-6.00
19340;HTU21D;9804;52.350;6.684;2024-01-11T09:17:21;-0.77;-6.00
19340;HTU21D;9804;52.350;6.684;2024-01-11T09:19:47;-0.56;-6.00
19340;HTU21D;9804;52.350;6.684;2024-01-11T09:22:12;-0.56;-6.00
19340;HTU21D;9804;52.350;6.684;2024-01-11T09:24:37;-0.44;-6.00
19340;HTU21D;9804;52.350;6.684;2024-01-11T09:27:03;-0.36;-6.00
19340;HTU21D;9804;52.350;6.684;2024-01-11T09:29:29;-0.27;-6.00
19340;HTU21D;9804;52.350;6.684;2024-01-11T09:31:55;-0.39;-6.00
19340;HTU21D;9804;52.350;6.684;2024-01-11T09:34:20;-0.27;-6.00
19340;HTU21D;9804;52.350;6.684;2024-01-11T09:36:46;-0.17;-6.00
19340;HTU21D;9804;52.350;6.684;2024-01-11T09:39:11;-0.09;-6.00
19340;HTU21D;9804;52.350;6.684;2024-01-11T09:41:41;-0.06;-6.00
19340;HTU21D;9804;52.350;6.684;2024-01-11T09:44:08;0.12;-6.00
19340;HTU21D;9804;52.350;6.684;2024-01-11T09:46:34;0.06;-6.00
19340;HTU21D;9804;52.350;6.684;2024-01-11T09:49:00;0.15;-6.00
19340;HTU21D;9804;52.350;6.684;2024-01-11T09:51:29;0.25;-6.00
19340;HTU21D;9804;52.350;6.684;2024-01-11T09:53:55;0.29;-6.00
19340;HTU21D;9804;52.350;6.684;2024-01-11T09:56:22;0.39;-6.00
19340;HTU21D;9804;52.350;6.684;2024-01-11T09:58:50;-0.14;-6.00
19340;HTU21D;9804;52.350;6.684;2024-01-11T10:01:15;0.18;-6.00
19340;HTU21D;9804;52.350;6.684;2024-01-11T10:03:41;0.28;-6.00
19340;HTU21D;9804;52.350;6.684;2024-01-11T10:06:12;0.21;-6.00
19340;HTU21D;9804;52.350;6.684;2024-01-11T10:08:38;0.36;-6.00
19340;HTU21D;9804;52.350;6.684;2024-01-11T10:11:04;0.42;-6.00
19340;HTU21D;9804;52.350;6.684;2024-01-11T10:13:31;0.54;-6.00
19340;HTU21D;9804;52.350;6.684;2024-01-11T10:16:11;0.62;-6.00
19340;HTU21D;9804;52.350;6.684;2024-01-11T10:18:43;0.59;-6.00
19340;HTU21D;9804;52.350;6.684;2024-01-11T10:21:09;0.60;-6.00
19340;HTU21D;9804;52.350;6.684;2024-01-11T10:23:35;0.82;-6.00
19340;HTU21D;9804;52.350;6.684;2024-01-11T10:26:02;0.77;-6.00
19340;HTU21D;9804;52.350;6.684;2024-01-11T10:28:28;0.75;-6.00
19340;HTU21D;9804;52.350;6.684;2024-01-11T10:30:54;0.67;-6.00
19340;HTU21D;9804;52.350;6.684;2024-01-11T10:33:20;0.74;-6.00
19340;HTU21D;9804;52.350;6.684;2024-01-11T10:35:49;0.64;-6.00
19340;HTU21D;9804;52.350;6.684;2024-01-11T10:38:18;0.75;-6.00
19340;HTU21D;9804;52.350;6.684;2024-01-11T10:40:44;0.76;-6.00
19340;HTU21D;9804;52.350;6.684;2024-01-11T10:43:10;0.69;-6.00
19340;HTU21D;9804;52.350;6.684;2024-01-11T10:45:37;0.69;-6.00
19340;HTU21D;9804;52.350;6.684;2024-01-11T10:48:07;0.86;-6.00
19340;HTU21D;9804;52.350;6.684;2024-01-11T10:50:36;0.91;-6.00
19340;HTU21D;9804;52.350;6.684;2024-01-11T10:56:05;1.07;-6.00
19340;HTU21D;9804;52.350;6.684;2024-01-11T10:58:34;1.10;-6.00
19340;HTU21D;9804;52.350;6.684;2024-01-11T11:01:01;1.23;-6.00
19340;HTU21D;9804;52.350;6.684;2024-01-11T11:03:27;1.11;-6.00
19340;HTU21D;9804;52.350;6.684;2024-01-11T11:05:54;1.18;-6.00
19340;HTU21D;9804;52.350;6.684;2024-01-11T11:08:23;1.23;-6.00
19340;HTU21D;9804;52.350;6.684;2024-01-11T11:10:51;1.26;-6.00
19340;HTU21D;9804;52.350;6.684;2024-01-11T11:13:20;1.22;-6.00
19340;HTU21D;9804;52.350;6.684;2024-01-11T11:15:53;-1.56;118.99
19340;HTU21D;9804;52.350;6.684;2024-01-11T11:18:19;1.13;-1.95
19340;HTU21D;9804;52.350;6.684;2024-01-11T11:20:46;1.34;-6.00
19340;HTU21D;9804;52.350;6.684;2024-01-11T11:23:14;1.56;-6.00
19340;HTU21D;9804;52.350;6.684;2024-01-11T11:25:44;1.53;-6.00
19340;HTU21D;9804;52.350;6.684;2024-01-11T11:28:13;1.70;-6.00
19340;HTU21D;9804;52.350;6.684;2024-01-11T11:30:44;1.72;-6.00
19340;HTU21D;9804;52.350;6.684;2024-01-11T11:33:21;1.62;-6.00
19340;HTU21D;9804;52.350;6.684;2024-01-11T11:35:47;1.48;-6.00
19340;HTU21D;9804;52.350;6.684;2024-01-11T11:38:24;1.57;-6.00
19340;HTU21D;9804;52.350;6.684;2024-01-11T11:40:52;1.78;-6.00
19340;HTU21D;9804;52.350;6.684;2024-01-11T11:43:19;1.61;-6.00
19340;HTU21D;9804;52.350;6.684;2024-01-11T11:45:47;1.77;-6.00
19340;HTU21D;9804;52.350;6.684;2024-01-11T11:51:19;2.08;-6.00
19340;HTU21D;9804;52.350;6.684;2024-01-11T11:53:47;2.06;-6.00
19340;HTU21D;9804;52.350;6.684;2024-01-11T11:56:14;1.95;-6.00
19340;HTU21D;9804;52.350;6.684;2024-01-11T11:58:42;2.24;-6.00
19340;HTU21D;9804;52.350;6.684;2024-01-11T12:01:11;2.11;-6.00
19340;HTU21D;9804;52.350;6.684;2024-01-11T12:03:38;2.22;-6.00
19340;HTU21D;9804;52.350;6.684;2024-01-11T12:06:07;2.16;-6.00
19340;HTU21D;9804;52.350;6.684;2024-01-11T12:08:33;2.05;-6.00
19340;HTU21D;9804;52.350;6.684;2024-01-11T12:10:59;2.34;-6.00
19340;HTU21D;9804;52.350;6.684;2024-01-11T12:13:25;2.41;-6.00
19340;HTU21D;9804;52.350;6.684;2024-01-11T12:15:51;2.45;-6.00
19340;HTU21D;9804;52.350;6.684;2024-01-11T12:18:16;2.39;-6.00
19340;HTU21D;9804;52.350;6.684;2024-01-11T12:20:42;2.55;-6.00
19340;HTU21D;9804;52.350;6.684;2024-01-11T12:23:07;2.20;-6.00
19340;HTU21D;9804;52.350;6.684;2024-01-11T12:25:33;2.36;-6.00
19340;HTU21D;9804;52.350;6.684;2024-01-11T12:27:59;2.30;-6.00
19340;HTU21D;9804;52.350;6.684;2024-01-11T12:30:25;2.40;-6.00
19340;HTU21D;9804;52.350;6.684;2024-01-11T12:32:51;2.45;-6.00
19340;HTU21D;9804;52.350;6.684;2024-01-11T12:35:17;2.56;-6.00
19340;HTU21D;9804;52.350;6.684;2024-01-11T12:37:58;2.80;-6.00
19340;HTU21D;9804;52.350;6.684;2024-01-11T12:40:23;2.60;-6.00
19340;HTU21D;9804;52.350;6.684;2024-01-11T12:42:49;2.79;-6.00
19340;HTU21D;9804;52.350;6.684;2024-01-11T12:45:16;2.53;-6.00
19340;HTU21D;9804;52.350;6.684;2024-01-11T12:47:41;2.61;-6.00
19340;HTU21D;9804;52.350;6.684;2024-01-11T12:50:07;2.88;-6.00
19340;HTU21D;9804;52.350;6.684;2024-01-11T12:52:33;2.68;-6.00
19340;HTU21D;9804;52.350;6.684;2024-01-11T12:54:58;2.60;-6.00
19340;HTU21D;9804;52.350;6.684;2024-01-11T12:57:24;2.68;-6.00
19340;HTU21D;9804;52.350;6.684;2024-01-11T12:59:50;2.86;-6.00
19340;HTU21D;9804;52.350;6.684;2024-01-11T13:02:16;2.87;-6.00
19340;HTU21D;9804;52.350;6.684;2024-01-11T13:04:44;3.11;-6.00
19340;HTU21D;9804;52.350;6.684;2024-01-11T13:07:11;3.00;-6.00
19340;HTU21D;9804;52.350;6.684;2024-01-11T13:09:38;2.79;-6.00
19340;HTU21D;9804;52.350;6.684;2024-01-11T13:12:04;2.90;-6.00
19340;HTU21D;9804;52.350;6.684;2024-01-11T13:14:29;2.73;-6.00
19340;HTU21D;9804;52.350;6.684;2024-01-11T13:16:55;2.90;-6.00
19340;HTU21D;9804;52.350;6.684;2024-01-11T13:19:20;2.90;-6.00
19340;HTU21D;9804;52.350;6.684;2024-01-11T13:21:45;3.03;-6.00
19340;HTU21D;9804;52.350;6.684;2024-01-11T13:24:11;3.02;-6.00
19340;HTU21D;9804;52.350;6.684;2024-01-11T13:26:38;3.12;-6.00
19340;HTU21D;9804;52.350;6.684;2024-01-11T13:29:04;2.89;-6.00
19340;HTU21D;9804;52.350;6.684;2024-01-11T13:31:31;2.76;-6.00
19340;HTU21D;9804;52.350;6.684;2024-01-11T13:33:57;2.91;-6.00
19340;HTU21D;9804;52.350;6.684;2024-01-11T13:36:23;2.89;-6.00
19340;HTU21D;9804;52.350;6.684;2024-01-11T13:38:48;2.74;-6.00
19340;HTU21D;9804;52.350;6.684;2024-01-11T13:41:18;2.84;-6.00
19340;HTU21D;9804;52.350;6.684;2024-01-11T13:43:43;2.84;-6.00
19340;HTU21D;9804;52.350;6.684;2024-01-11T13:46:09;2.99;-6.00
19340;HTU21D;9804;52.350;6.684;2024-01-11T13:48:38;2.96;-6.00
19340;HTU21D;9804;52.350;6.684;2024-01-11T13:51:03;3.01;-6.00
19340;HTU21D;9804;52.350;6.684;2024-01-11T13:53:29;2.91;-6.00
19340;HTU21D;9804;52.350;6.684;2024-01-11T13:55:55;3.01;-6.00
19340;HTU21D;9804;52.350;6.684;2024-01-11T13:58:21;2.94;-6.00
19340;HTU21D;9804;52.350;6.684;2024-01-11T14:00:46;3.06;-6.00
19340;HTU21D;9804;52.350;6.684;2024-01-11T14:03:12;2.78;-6.00
19340;HTU21D;9804;52.350;6.684;2024-01-11T14:05:37;2.96;-6.00
19340;HTU21D;9804;52.350;6.684;2024-01-11T14:08:03;2.94;-6.00
19340;HTU21D;9804;52.350;6.684;2024-01-11T14:10:32;2.86;-6.00
19340;HTU21D;9804;52.350;6.684;2024-01-11T14:12:59;2.94;-6.00
19340;HTU21D;9804;52.350;6.684;2024-01-11T14:15:24;2.86;-6.00
19340;HTU21D;9804;52.350;6.684;2024-01-11T14:17:50;2.90;-6.00
19340;HTU21D;9804;52.350;6.684;2024-01-11T14:20:16;2.87;-6.00
19340;HTU21D;9804;52.350;6.684;2024-01-11T14:22:43;3.03;-6.00
19340;HTU21D;9804;52.350;6.684;2024-01-11T14:25:12;3.06;-6.00
19340;HTU21D;9804;52.350;6.684;2024-01-11T14:27:38;3.02;-6.00
19340;HTU21D;9804;52.350;6.684;2024-01-11T14:30:05;2.96;-6.00
19340;HTU21D;9804;52.350;6.684;2024-01-11T14:32:32;2.97;-6.00
19340;HTU21D;9804;52.350;6.684;2024-01-11T14:34:57;2.97;-6.00
19340;HTU21D;9804;52.350;6.684;2024-01-11T14:37:23;3.12;-6.00
19340;HTU21D;9804;52.350;6.684;2024-01-11T14:39:48;3.05;-6.00
19340;HTU21D;9804;52.350;6.684;2024-01-11T14:42:13;2.94;-6.00
19340;HTU21D;9804;52.350;6.684;2024-01-11T14:44:39;2.99;-6.00
19340;HTU21D;9804;52.350;6.684;2024-01-11T14:47:04;2.93;-6.00
19340;HTU21D;9804;52.350;6.684;2024-01-11T14:49:30;2.93;-6.00
19340;HTU21D;9804;52.350;6.684;2024-01-11T14:51:55;3.05;-6.00
19340;HTU21D;9804;52.350;6.684;2024-01-11T14:54:21;2.87;-6.00
19340;HTU21D;9804;52.350;6.684;2024-01-11T14:56:46;2.73;-6.00
19340;HTU21D;9804;52.350;6.684;2024-01-11T14:59:13;2.81;-6.00
19340;HTU21D;9804;52.350;6.684;2024-01-11T15:01:38;2.84;-6.00
19340;HTU21D;9804;52.350;6.684;2024-01-11T15:04:04;2.80;-6.00
19340;HTU21D;9804;52.350;6.684;2024-01-11T15:06:30;2.65;-6.00
19340;HTU21D;9804;52.350;6.684;2024-01-11T15:08:56;2.64;-6.00
19340;HTU21D;9804;52.350;6.684;2024-01-11T15:11:21;2.61;-6.00
19340;HTU21D;9804;52.350;6.684;2024-01-11T15:13:47;2.84;-6.00
19340;HTU21D;9804;52.350;6.684;2024-01-11T15:16:12;2.83;-6.00
19340;HTU21D;9804;52.350;6.684;2024-01-11T15:18:38;2.69;-6.00
19340;HTU21D;9804;52.350;6.684;2024-01-11T15:21:03;2.70;-6.00
19340;HTU21D;9804;52.350;6.684;2024-01-11T15:23:29;2.70;-6.00
19340;HTU21D;9804;52.350;6.684;2024-01-11T15:25:54;2.68;-6.00
19340;HTU21D;9804;52.350;6.684;2024-01-11T15:28:20;2.62;-6.00
19340;HTU21D;9804;52.350;6.684;2024-01-11T15:30:45;2.65;-6.00
19340;HTU21D;9804;52.350;6.684;2024-01-11T15:33:11;2.66;-6.00
19340;HTU21D;9804;52.350;6.684;2024-01-11T15:35:36;2.69;-6.00